createdAt,value
2019-04-04T00:03:51.500Z,22.00
2019-04-04T00:08:54.370Z,22.00
2019-04-04T00:13:58.204Z,21.90
2019-04-04T00:19:02.032Z,22.00
2019-04-04T00:24:07.092Z,22.00
2019-04-04T00:29:11.530Z,22.00
2019-04-04T00:34:15.515Z,21.90
2019-04-04T00:39:19.504Z,21.90
2019-04-04T00:44:23.744Z,21.90
2019-04-04T00:49:27.756Z,21.90
2019-04-04T00:54:31.583Z,21.90
2019-04-04T00:59:35.412Z,21.90
2019-04-04T01:04:39.244Z,21.90
2019-04-04T01:09:43.068Z,21.80
2019-04-04T01:14:46.893Z,21.80
2019-04-04T01:19:50.623Z,21.80
2019-04-04T01:24:54.446Z,21.80
2019-04-04T01:29:58.376Z,21.80
2019-04-04T01:35:02.203Z,21.80
2019-04-04T01:40:06.036Z,21.80
2019-04-04T01:45:12.746Z,21.80
2019-04-04T01:50:15.532Z,21.80
2019-04-04T01:55:19.362Z,21.80
2019-04-04T02:00:23.188Z,21.80
2019-04-04T02:05:27.594Z,21.70
2019-04-04T02:10:34.575Z,21.80
2019-04-04T02:15:37.131Z,21.80
2019-04-04T02:20:40.951Z,21.70
2019-04-04T02:25:45.093Z,21.70
2019-04-04T02:30:49.311Z,21.70
2019-04-04T02:35:53.359Z,21.70
2019-04-04T02:40:57.184Z,21.70
2019-04-04T02:46:01.017Z,21.70
2019-04-04T02:51:07.359Z,21.70
2019-04-04T02:56:10.821Z,21.70
2019-04-04T03:01:14.746Z,21.70
2019-04-04T03:06:18.782Z,21.70
2019-04-04T03:11:22.970Z,21.70
2019-04-04T03:16:27.048Z,21.70
2019-04-04T03:21:30.772Z,21.60
2019-04-04T03:26:34.704Z,21.60
2019-04-04T03:31:39.226Z,21.60
2019-04-04T03:36:43.284Z,21.60
2019-04-04T03:41:47.107Z,21.60
2019-04-04T03:46:50.937Z,21.60
2019-04-04T03:51:54.773Z,21.60
2019-04-04T03:56:58.801Z,21.60
2019-04-04T04:02:02.729Z,21.60
2019-04-04T04:07:06.561Z,21.60
2019-04-04T04:12:11.281Z,21.60
2019-04-04T04:17:15.440Z,21.60
2019-04-04T04:22:19.529Z,21.60
2019-04-04T04:27:23.459Z,21.50
2019-04-04T04:32:27.191Z,21.60
2019-04-04T04:37:31.058Z,19.80
2019-04-04T04:42:34.784Z,17.50
2019-04-04T04:47:38.572Z,15.80
2019-04-04T04:52:46.289Z,14.60
2019-04-04T04:57:47.715Z,13.90
2019-04-04T05:02:53.166Z,13.40
2019-04-04T05:07:56.929Z,13.00
2019-04-04T05:13:00.918Z,12.80
2019-04-04T05:18:04.750Z,12.70
2019-04-04T05:23:10.989Z,12.70
2019-04-04T05:28:13.811Z,12.70
2019-04-04T05:33:17.506Z,12.70
2019-04-04T05:38:21.283Z,12.90
2019-04-04T05:43:25.007Z,13.40
2019-04-04T05:48:29.094Z,14.30
2019-04-04T05:53:35.427Z,15.70
2019-04-04T05:58:39.055Z,17.00
2019-04-04T06:03:42.887Z,18.40
2019-04-04T06:08:46.721Z,20.10
2019-04-04T06:13:50.845Z,21.60
2019-04-04T06:18:54.667Z,22.70
2019-04-04T06:23:58.504Z,23.80
2019-04-04T06:29:02.223Z,24.80
2019-04-04T06:34:08.177Z,25.40
2019-04-04T06:39:11.520Z,26.00
2019-04-04T06:44:15.414Z,26.60
2019-04-04T06:49:19.481Z,27.60
2019-04-04T06:54:25.648Z,28.60
2019-04-04T06:59:29.285Z,29.70
2019-04-04T07:04:36.091Z,30.40
2019-04-04T07:09:38.471Z,30.90
2019-04-04T07:14:46.014Z,31.10
2019-04-04T07:19:47.977Z,31.10
2019-04-04T07:24:51.796Z,31.00
2019-04-04T07:29:56.932Z,30.40
2019-04-04T07:35:01.602Z,28.90
2019-04-04T07:40:06.649Z,27.20
2019-04-04T14:30:25.742Z,19.30
2019-04-04T14:35:29.962Z,19.30
2019-04-04T14:40:33.738Z,19.40
2019-04-04T14:45:37.515Z,19.60
2019-04-04T14:50:41.285Z,19.70
2019-04-04T14:55:45.008Z,19.80
2019-04-04T15:00:48.754Z,19.80
2019-04-04T15:05:52.434Z,19.80
2019-04-04T15:10:56.160Z,19.70
2019-04-04T15:16:16.588Z,19.70
2019-04-04T15:21:20.319Z,19.60
2019-04-04T15:26:24.539Z,19.50
2019-04-04T15:31:28.284Z,19.50
2019-04-04T15:36:32.036Z,19.40
2019-04-04T15:41:37.099Z,19.30
2019-04-04T15:46:41.104Z,19.20
2019-04-04T15:51:44.848Z,19.00
2019-04-04T15:56:49.046Z,18.80
2019-04-04T16:01:52.765Z,18.60
2019-04-04T16:06:57.298Z,18.40
2019-04-04T16:12:01.023Z,18.20
2019-04-04T16:17:04.758Z,18.10
2019-04-04T16:22:08.532Z,17.90
2019-04-04T16:27:12.293Z,17.80
2019-04-04T16:32:16.022Z,17.60
2019-04-04T16:37:19.767Z,17.50
2019-04-04T16:42:23.454Z,17.80
2019-04-04T16:47:27.363Z,17.60
2019-04-04T16:52:31.196Z,17.40
2019-04-04T16:57:35.330Z,17.10
2019-04-04T17:02:39.157Z,17.00
2019-04-04T17:07:42.981Z,16.80
2019-04-04T17:12:46.813Z,16.70
2019-04-04T17:17:50.493Z,16.50
2019-04-04T17:22:56.003Z,16.30
2019-04-04T17:27:59.745Z,16.20
2019-04-04T17:33:03.520Z,16.10
2019-04-04T17:38:07.285Z,16.00
2019-04-04T17:43:11.448Z,16.00
2019-04-04T17:48:15.443Z,15.80
2019-04-04T17:53:19.270Z,15.60
2019-04-04T17:58:23.012Z,15.40
2019-04-04T18:03:26.712Z,15.30
2019-04-04T18:08:30.436Z,15.20
2019-04-04T18:13:34.159Z,15.10
2019-04-04T18:18:37.854Z,15.10
2019-04-04T18:23:41.595Z,15.00
2019-04-04T18:28:45.321Z,14.90
2019-04-04T18:33:49.470Z,14.90
2019-04-04T18:38:53.549Z,14.90
2019-04-04T18:43:57.548Z,14.80
2019-04-04T18:49:02.602Z,14.80
2019-04-04T18:54:06.327Z,14.80
2019-04-04T18:59:10.111Z,14.80
2019-04-04T19:04:13.862Z,14.80
2019-04-04T19:09:17.616Z,14.80
2019-04-04T19:14:21.336Z,14.80
2019-04-04T19:19:25.028Z,14.80
2019-04-04T19:24:28.742Z,14.90
2019-04-04T19:29:32.464Z,14.90
2019-04-04T19:34:36.207Z,15.00
2019-04-04T19:39:39.946Z,15.00
2019-04-04T19:44:53.112Z,15.10
2019-04-04T19:49:49.099Z,15.10
2019-04-04T19:54:52.790Z,15.00
2019-04-04T19:59:56.572Z,14.90
2019-04-04T20:05:00.377Z,14.80
2019-04-04T20:10:06.080Z,14.80
2019-04-04T20:15:10.083Z,14.70
2019-04-04T20:20:13.834Z,14.50
2019-04-04T20:25:17.597Z,14.30
2019-04-04T20:30:24.452Z,14.30
2019-04-04T20:35:28.242Z,14.10
2019-04-04T20:40:31.925Z,14.00
2019-04-04T20:45:35.652Z,14.00
2019-04-04T20:50:39.395Z,13.90
2019-04-04T20:55:43.197Z,13.80
2019-04-04T21:00:46.885Z,13.70
2019-04-04T21:05:50.616Z,13.50
2019-04-04T21:10:54.304Z,13.40
2019-04-04T21:15:58.027Z,13.30
2019-04-04T21:21:02.053Z,13.20
2019-04-04T21:26:05.747Z,13.10
2019-04-04T21:31:09.487Z,12.90
2019-04-04T21:36:13.258Z,12.90
2019-04-04T21:41:16.978Z,12.80
2019-04-04T21:46:20.693Z,12.70
2019-04-04T21:51:24.435Z,12.60
2019-04-04T21:56:28.172Z,12.60
2019-04-04T22:01:32.002Z,12.50
2019-04-04T22:06:35.692Z,12.40
2019-04-04T22:11:39.432Z,12.30
2019-04-04T22:16:43.524Z,12.20
2019-04-04T22:21:47.222Z,12.10
2019-04-04T22:26:50.986Z,12.10
2019-04-04T22:31:54.748Z,12.00
2019-04-04T22:36:58.453Z,12.00
2019-04-04T22:42:02.199Z,12.00
2019-04-04T22:47:05.959Z,11.90
2019-04-04T22:52:09.645Z,11.90
2019-04-04T22:57:13.396Z,11.90
2019-04-04T23:02:17.081Z,11.80
2019-04-04T23:07:20.778Z,11.80
2019-04-04T23:12:24.532Z,11.80
2019-04-04T23:17:28.218Z,11.70
2019-04-04T23:22:32.014Z,11.70
2019-04-04T23:27:35.706Z,11.70
2019-04-04T23:32:39.449Z,11.70
2019-04-04T23:37:43.161Z,11.70
2019-04-04T23:42:46.902Z,11.70
2019-04-04T23:47:50.669Z,11.80
2019-04-04T23:52:54.391Z,11.80
2019-04-04T23:57:58.086Z,11.90
